createdAt,value
2018-07-30T00:00:13.261Z,25.90
2018-07-30T00:02:45.307Z,26.00
2018-07-30T00:05:14.583Z,25.90
2018-07-30T00:07:43.816Z,25.90
2018-07-30T00:10:13.039Z,25.80
2018-07-30T00:12:42.715Z,25.60
2018-07-30T00:15:11.932Z,25.50
2018-07-30T00:17:41.132Z,25.50
2018-07-30T00:20:10.360Z,25.50
2018-07-30T00:22:39.576Z,25.50
2018-07-30T00:25:09.532Z,25.50
2018-07-30T00:27:38.751Z,25.40
2018-07-30T00:30:07.955Z,25.30
2018-07-30T00:32:37.803Z,25.30
2018-07-30T00:35:07.599Z,25.20
2018-07-30T00:37:36.835Z,25.10
2018-07-30T00:40:08.060Z,25.00
2018-07-30T00:42:38.297Z,24.90
2018-07-30T00:45:07.546Z,24.80
2018-07-30T00:47:36.764Z,24.80
2018-07-30T00:50:06.034Z,24.90
2018-07-30T00:52:35.228Z,24.90
2018-07-30T00:55:05.040Z,24.90
2018-07-30T00:57:34.232Z,24.80
2018-07-30T01:00:03.484Z,24.80
2018-07-30T01:02:32.711Z,24.80
2018-07-30T01:05:01.908Z,24.90
2018-07-30T01:07:31.259Z,25.00
2018-07-30T01:10:00.345Z,24.90
2018-07-30T01:12:29.578Z,24.90
2018-07-30T01:14:58.757Z,25.00
2018-07-30T01:17:28.436Z,24.90
2018-07-30T01:19:57.649Z,24.70
2018-07-30T01:22:26.836Z,24.60
2018-07-30T01:24:56.080Z,24.60
2018-07-30T01:27:25.278Z,24.60
2018-07-30T01:29:54.467Z,24.50
2018-07-30T01:32:23.676Z,24.40
2018-07-30T01:34:53.145Z,24.40
2018-07-30T01:37:22.351Z,24.40
2018-07-30T01:39:52.143Z,24.20
2018-07-30T01:42:21.327Z,24.10
2018-07-30T01:44:50.515Z,24.10
2018-07-30T01:47:19.740Z,24.10
2018-07-30T01:49:48.923Z,24.00
2018-07-30T01:52:18.123Z,24.00
2018-07-30T01:54:47.345Z,24.00
2018-07-30T01:57:16.543Z,24.00
2018-07-30T01:59:46.020Z,23.90
2018-07-30T02:02:15.317Z,23.90
2018-07-30T02:04:44.768Z,23.80
2018-07-30T02:07:14.020Z,23.70
2018-07-30T02:09:43.440Z,23.70
2018-07-30T02:12:12.639Z,23.70
2018-07-30T02:14:41.838Z,23.80
2018-07-30T02:17:11.051Z,24.00
2018-07-30T02:19:40.220Z,24.00
2018-07-30T02:22:09.427Z,24.00
2018-07-30T02:24:38.786Z,24.10
2018-07-30T02:27:07.980Z,24.00
2018-07-30T02:29:37.215Z,24.00
2018-07-30T02:32:07.280Z,24.00
2018-07-30T02:34:36.514Z,24.30
2018-07-30T02:39:35.148Z,24.30
2018-07-30T02:42:04.366Z,24.10
2018-07-30T02:44:33.569Z,24.10
2018-07-30T02:47:03.270Z,23.90
2018-07-30T02:49:32.466Z,23.80
2018-07-30T02:52:01.863Z,23.60
2018-07-30T02:54:31.093Z,23.60
2018-07-30T02:57:00.293Z,23.40
2018-07-30T02:59:29.506Z,23.30
2018-07-30T03:01:58.721Z,23.10
2018-07-30T03:04:27.936Z,23.10
2018-07-30T03:06:57.170Z,23.20
2018-07-30T03:09:28.294Z,23.20
2018-07-30T03:11:57.459Z,23.20
2018-07-30T03:16:55.604Z,23.20
2018-07-30T03:19:24.795Z,23.10
2018-07-30T03:21:53.992Z,23.20
2018-07-30T03:24:23.215Z,23.10
2018-07-30T03:26:52.460Z,23.10
2018-07-30T03:29:21.653Z,23.00
2018-07-30T03:31:51.284Z,22.90
2018-07-30T03:34:20.459Z,22.90
2018-07-30T03:36:49.660Z,22.80
2018-07-30T03:39:19.311Z,22.80
2018-07-30T03:41:48.512Z,22.80
2018-07-30T03:44:17.697Z,22.80
2018-07-30T03:46:46.940Z,22.80
2018-07-30T03:49:16.183Z,22.80
2018-07-30T03:51:45.396Z,22.70
2018-07-30T03:54:14.997Z,22.60
2018-07-30T03:56:44.188Z,22.50
2018-07-30T03:59:13.678Z,22.40
2018-07-30T04:01:42.995Z,22.30
2018-07-30T04:04:12.244Z,22.40
2018-07-30T04:06:41.439Z,22.40
2018-07-30T04:09:10.698Z,22.60
2018-07-30T04:11:39.894Z,22.70
2018-07-30T04:14:09.093Z,22.90
2018-07-30T04:16:43.236Z,23.10
2018-07-30T04:19:12.468Z,23.10
2018-07-30T04:21:41.659Z,23.10
2018-07-30T04:26:39.968Z,22.70
2018-07-30T04:29:09.155Z,22.70
2018-07-30T04:34:07.856Z,22.70
2018-07-30T04:36:37.684Z,22.50
2018-07-30T04:39:10.719Z,22.60
2018-07-30T04:41:40.079Z,22.60
2018-07-30T04:44:09.372Z,22.50
2018-07-30T04:46:38.711Z,22.70
2018-07-30T04:49:07.908Z,22.90
2018-07-30T04:51:37.600Z,23.20
2018-07-30T04:54:07.024Z,23.40
2018-07-30T04:56:36.220Z,23.50
2018-07-30T04:59:05.439Z,23.50
2018-07-30T05:01:35.007Z,23.50
2018-07-30T05:04:04.292Z,23.50
2018-07-30T05:06:33.714Z,23.40
2018-07-30T05:09:03.009Z,23.20
2018-07-30T05:11:32.180Z,23.00
2018-07-30T05:16:30.323Z,23.00
2018-07-30T05:18:59.506Z,23.10
2018-07-30T05:21:28.896Z,23.00
2018-07-30T05:23:58.408Z,23.00
2018-07-30T05:26:27.620Z,23.00
2018-07-30T05:28:56.836Z,23.10
2018-07-30T05:31:27.364Z,23.10
2018-07-30T05:33:56.655Z,23.10
2018-07-30T05:36:25.840Z,23.00
2018-07-30T05:38:55.179Z,22.90
2018-07-30T05:41:24.391Z,22.80
2018-07-30T05:46:23.741Z,22.90
2018-07-30T05:48:52.936Z,22.90
2018-07-30T05:51:22.144Z,23.10
2018-07-30T05:53:51.380Z,23.30
2018-07-30T05:56:20.569Z,23.50
2018-07-30T05:58:50.075Z,23.60
2018-07-30T06:01:19.345Z,23.70
2018-07-30T06:03:48.532Z,23.80
2018-07-30T06:06:17.740Z,23.70
2018-07-30T06:08:47.208Z,23.70
2018-07-30T06:11:16.400Z,23.70
2018-07-30T06:13:45.604Z,23.70
2018-07-30T06:16:14.842Z,23.50
2018-07-30T06:18:44.358Z,23.50
2018-07-30T06:21:13.544Z,23.50
2018-07-30T06:23:42.972Z,23.50
2018-07-30T06:26:12.167Z,23.50
2018-07-30T06:28:41.756Z,23.50
2018-07-30T06:31:11.672Z,23.50
2018-07-30T06:33:40.874Z,23.50
2018-07-30T06:36:10.072Z,23.50
2018-07-30T06:38:39.316Z,23.50
2018-07-30T06:41:08.520Z,23.60
2018-07-30T06:46:06.978Z,23.70
2018-07-30T06:48:36.168Z,23.70
2018-07-30T06:51:05.388Z,23.90
2018-07-30T06:53:34.871Z,24.10
2018-07-30T06:56:04.077Z,24.30
2018-07-30T06:58:33.280Z,24.40
2018-07-30T07:01:02.524Z,24.50
2018-07-30T07:03:31.791Z,24.60
2018-07-30T07:06:00.996Z,24.60
2018-07-30T07:08:30.208Z,24.60
2018-07-30T07:10:59.824Z,24.60
2018-07-30T07:13:28.996Z,24.50
2018-07-30T07:15:58.784Z,24.60
2018-07-30T07:18:27.965Z,24.60
2018-07-30T07:20:57.172Z,24.60
2018-07-30T07:23:26.508Z,24.60
2018-07-30T07:26:02.513Z,24.60
2018-07-30T07:28:33.845Z,24.70
2018-07-30T07:31:10.450Z,24.70
2018-07-30T07:33:40.859Z,24.80
2018-07-30T07:36:10.032Z,24.90
2018-07-30T07:38:39.430Z,25.00
2018-07-30T07:41:13.654Z,25.10
2018-07-30T07:46:11.972Z,25.20
2018-07-30T07:48:41.223Z,25.20
2018-07-30T07:51:10.421Z,25.20
2018-07-30T07:53:39.620Z,25.20
2018-07-30T07:56:09.400Z,25.30
2018-07-30T07:58:38.804Z,25.50
2018-07-30T08:01:08.034Z,25.60
2018-07-30T08:03:37.260Z,25.60
2018-07-30T08:08:35.376Z,25.70
2018-07-30T08:11:04.755Z,25.80
2018-07-30T08:13:34.020Z,25.90
2018-07-30T08:16:03.228Z,25.90
2018-07-30T08:18:35.100Z,26.00
2018-07-30T08:21:04.428Z,26.10
2018-07-30T08:23:34.415Z,26.20
2018-07-30T08:28:32.631Z,26.40
2018-07-30T08:31:01.821Z,26.70
2018-07-30T08:35:59.817Z,27.00
2018-07-30T08:38:29.013Z,27.10
2018-07-30T08:40:58.654Z,27.20
2018-07-30T08:43:28.029Z,27.40
2018-07-30T08:45:57.273Z,27.60
2018-07-30T08:48:27.011Z,27.60
2018-07-30T08:50:56.767Z,27.60
2018-07-30T08:53:26.503Z,27.70
2018-07-30T08:55:55.764Z,27.60
2018-07-30T08:58:25.984Z,27.50
2018-07-30T09:00:55.188Z,27.50
2018-07-30T09:03:26.964Z,27.50
2018-07-30T09:05:56.220Z,27.60
2018-07-30T09:08:25.710Z,27.60
2018-07-30T09:10:55.008Z,27.70
2018-07-30T09:13:24.532Z,27.80
2018-07-30T09:18:27.080Z,27.90
2018-07-30T09:20:56.357Z,28.00
2018-07-30T09:23:25.568Z,28.00
2018-07-30T09:25:55.014Z,28.10
2018-07-30T09:28:30.872Z,28.20
2018-07-30T09:31:00.507Z,28.20
2018-07-30T09:33:30.126Z,28.30
2018-07-30T09:35:59.688Z,28.40
2018-07-30T09:38:28.916Z,28.50
2018-07-30T09:40:58.303Z,28.50
2018-07-30T09:43:28.802Z,28.50
2018-07-30T09:45:58.588Z,28.50
2018-07-30T09:48:28.294Z,28.60
2018-07-30T09:50:57.959Z,28.70
2018-07-30T09:53:27.978Z,28.70
2018-07-30T09:55:57.359Z,28.80
2018-07-30T09:58:26.552Z,28.90
2018-07-30T10:01:32.490Z,28.90
2018-07-30T10:04:01.984Z,29.00
2018-07-30T10:06:31.164Z,29.00
2018-07-30T10:09:00.419Z,29.00
2018-07-30T10:11:29.636Z,29.10
2018-07-30T10:13:59.086Z,29.20
2018-07-30T10:16:30.828Z,29.30
2018-07-30T10:19:00.049Z,29.30
2018-07-30T10:21:29.253Z,29.40
2018-07-30T10:23:58.974Z,29.50
2018-07-30T10:26:28.821Z,29.60
2018-07-30T10:28:58.052Z,29.60
2018-07-30T10:31:27.900Z,29.60
2018-07-30T10:33:57.387Z,29.60
2018-07-30T10:36:28.793Z,29.60
2018-07-30T10:38:57.952Z,29.60
2018-07-30T10:41:28.180Z,29.60
2018-07-30T10:43:57.863Z,29.70
2018-07-30T10:46:29.249Z,29.80
2018-07-30T10:49:01.740Z,29.90
2018-07-30T10:51:30.988Z,30.00
2018-07-30T10:54:00.788Z,30.20
2018-07-30T10:56:30.122Z,30.20
2018-07-30T10:58:59.287Z,30.30
2018-07-30T11:01:28.712Z,30.40
2018-07-30T11:03:58.316Z,30.50
2018-07-30T11:06:27.636Z,30.60
2018-07-30T11:08:56.808Z,30.80
2018-07-30T11:11:26.316Z,31.10
2018-07-30T11:13:55.952Z,31.40
2018-07-30T11:16:25.255Z,32.10
2018-07-30T11:18:54.916Z,33.20
2018-07-30T11:21:26.457Z,34.50
2018-07-30T11:23:55.785Z,35.90
2018-07-30T11:26:26.412Z,36.70
2018-07-30T11:28:55.902Z,37.50
2018-07-30T11:31:25.311Z,38.40
2018-07-30T11:33:54.741Z,39.10
2018-07-30T11:36:23.932Z,39.30
2018-07-30T11:38:53.349Z,39.90
2018-07-30T11:41:23.432Z,40.60
2018-07-30T11:43:53.614Z,41.00
2018-07-30T11:46:22.943Z,41.30
2018-07-30T11:48:55.201Z,42.00
2018-07-30T11:51:25.124Z,42.70
2018-07-30T11:53:54.308Z,43.20
2018-07-30T11:56:23.519Z,43.60
2018-07-30T11:58:52.980Z,43.60
2018-07-30T12:01:22.496Z,43.60
2018-07-30T12:03:51.680Z,43.60
2018-07-30T12:06:20.900Z,44.00
2018-07-30T12:08:50.570Z,44.50
2018-07-30T12:11:20.072Z,44.80
2018-07-30T12:13:49.268Z,45.20
2018-07-30T12:16:18.472Z,45.50
2018-07-30T12:18:47.799Z,45.80
2018-07-30T12:21:17.063Z,46.00
2018-07-30T12:26:18.025Z,45.00
2018-07-30T12:28:48.344Z,45.40
2018-07-30T12:31:17.740Z,46.00
2018-07-30T12:33:47.529Z,46.30
2018-07-30T12:36:16.824Z,46.80
2018-07-30T12:38:46.342Z,46.70
2018-07-30T12:43:44.471Z,46.80
2018-07-30T12:46:13.730Z,46.90
2018-07-30T12:48:42.971Z,46.70
2018-07-30T12:51:12.212Z,46.00
2018-07-30T12:53:41.690Z,46.10
2018-07-30T12:56:15.182Z,46.40
2018-07-30T12:58:46.608Z,47.10
2018-07-30T13:01:15.920Z,47.10
2018-07-30T13:03:46.113Z,47.60
2018-07-30T13:06:18.808Z,47.90
2018-07-30T13:08:49.046Z,47.80
2018-07-30T13:11:18.375Z,47.00
2018-07-30T13:13:47.734Z,46.40
2018-07-30T13:16:18.767Z,46.30
2018-07-30T13:18:49.916Z,46.40
2018-07-30T13:21:19.579Z,46.20
2018-07-30T13:23:49.400Z,46.70
2018-07-30T13:26:19.774Z,47.20
2018-07-30T13:28:50.032Z,47.30
2018-07-30T13:31:19.727Z,47.00
2018-07-30T13:33:52.400Z,46.20
2018-07-30T13:36:22.289Z,46.30
2018-07-30T13:38:51.534Z,46.90
2018-07-30T13:41:20.753Z,47.40
2018-07-30T13:43:50.576Z,48.00
2018-07-30T13:46:19.920Z,48.70
2018-07-30T13:48:50.607Z,49.00
2018-07-30T13:51:20.218Z,48.30
2018-07-30T13:53:50.344Z,47.70
2018-07-30T13:56:25.248Z,48.20
2018-07-30T13:58:54.469Z,49.10
2018-07-30T14:01:23.667Z,49.50
2018-07-30T14:03:53.011Z,50.00
2018-07-30T14:06:22.492Z,50.60
2018-07-30T14:08:52.076Z,51.10
2018-07-30T14:11:21.864Z,51.50
2018-07-30T14:13:54.112Z,51.40
2018-07-30T14:16:24.194Z,51.60
2018-07-30T14:18:53.885Z,51.80
2018-07-30T14:21:24.536Z,52.00
2018-07-30T14:26:22.896Z,51.70
2018-07-30T14:28:52.420Z,51.60
2018-07-30T14:33:51.633Z,51.10
2018-07-30T14:36:21.019Z,50.90
2018-07-30T14:38:51.488Z,51.10
2018-07-30T14:41:20.784Z,51.40
2018-07-30T14:43:50.236Z,51.50
2018-07-30T14:46:20.656Z,50.90
2018-07-30T14:48:49.879Z,50.40
2018-07-30T14:51:19.096Z,49.60
2018-07-30T14:53:48.324Z,49.50
2018-07-30T14:56:18.303Z,50.10
2018-07-30T14:58:47.512Z,49.90
2018-07-30T15:01:17.059Z,50.00
2018-07-30T15:03:46.268Z,50.50
2018-07-30T15:06:15.906Z,51.20
2018-07-30T15:08:45.075Z,52.00
2018-07-30T15:11:14.652Z,52.40
2018-07-30T15:13:43.872Z,52.80
2018-07-30T15:16:13.324Z,52.80
2018-07-30T15:18:42.559Z,52.70
2018-07-30T15:21:11.772Z,52.50
2018-07-30T15:23:41.422Z,52.50
2018-07-30T15:26:10.764Z,52.30
2018-07-30T15:28:39.964Z,51.90
2018-07-30T15:31:09.208Z,51.90
2018-07-30T15:33:38.400Z,51.30
2018-07-30T15:36:07.627Z,51.20
2018-07-30T15:38:36.860Z,51.30
2018-07-30T15:41:06.127Z,51.40
2018-07-30T15:43:35.366Z,51.70
2018-07-30T15:46:05.081Z,52.00
2018-07-30T15:48:34.356Z,52.10
2018-07-30T15:51:03.559Z,52.20
2018-07-30T15:53:32.779Z,52.10
2018-07-30T15:56:01.982Z,52.20
2018-07-30T15:58:31.330Z,52.50
2018-07-30T16:01:00.561Z,52.40
2018-07-30T16:03:29.774Z,52.50
2018-07-30T16:05:58.960Z,52.40
2018-07-30T16:08:28.480Z,52.50
2018-07-30T16:10:57.689Z,52.20
2018-07-30T16:13:26.944Z,51.50
2018-07-30T16:15:56.164Z,51.20
2018-07-30T16:18:26.687Z,51.30
2018-07-30T16:20:56.212Z,51.70
2018-07-30T16:23:25.508Z,51.80
2018-07-30T16:25:54.611Z,52.20
2018-07-30T16:28:23.855Z,52.20
2018-07-30T16:30:53.480Z,52.20
2018-07-30T16:33:22.858Z,51.80
2018-07-30T16:35:54.282Z,51.50
2018-07-30T16:38:23.758Z,51.20
2018-07-30T16:40:53.444Z,51.40
2018-07-30T16:43:22.751Z,51.50
2018-07-30T16:45:51.996Z,51.60
2018-07-30T16:48:21.403Z,51.70
2018-07-30T16:50:50.905Z,51.80
2018-07-30T16:53:20.363Z,51.70
2018-07-30T16:55:50.167Z,51.40
2018-07-30T16:58:19.568Z,51.20
2018-07-30T17:00:48.783Z,51.00
2018-07-30T17:03:18.093Z,50.90
2018-07-30T17:05:47.317Z,50.70
2018-07-30T17:08:16.756Z,50.40
2018-07-30T17:10:45.964Z,49.70
2018-07-30T17:13:15.368Z,49.10
2018-07-30T17:15:45.211Z,48.40
2018-07-30T17:18:14.439Z,47.60
2018-07-30T17:20:43.680Z,46.70
2018-07-30T17:23:13.098Z,46.00
2018-07-30T17:25:42.287Z,45.60
2018-07-30T17:28:11.641Z,45.10
2018-07-30T17:30:41.906Z,44.70
2018-07-30T17:33:11.256Z,45.00
2018-07-30T17:35:40.873Z,45.60
2018-07-30T17:38:10.364Z,45.80
2018-07-30T17:40:39.525Z,46.10
2018-07-30T17:43:09.541Z,46.40
2018-07-30T17:45:39.708Z,46.50
2018-07-30T17:48:09.388Z,46.40
2018-07-30T17:50:38.760Z,46.20
2018-07-30T17:53:08.122Z,45.80
2018-07-30T17:55:37.572Z,45.30
2018-07-30T18:00:36.951Z,43.80
2018-07-30T18:03:06.864Z,43.00
2018-07-30T18:05:36.088Z,42.30
2018-07-30T18:08:07.851Z,41.70
2018-07-30T18:10:37.203Z,41.30
2018-07-30T18:13:06.794Z,40.90
2018-07-30T18:15:36.002Z,40.60
2018-07-30T18:18:05.952Z,40.30
2018-07-30T18:20:35.324Z,40.10
2018-07-30T18:23:04.544Z,39.90
2018-07-30T18:25:33.887Z,39.70
2018-07-30T18:28:03.098Z,39.50
2018-07-30T18:30:32.460Z,39.40
2018-07-30T18:33:02.284Z,39.20
2018-07-30T18:35:32.245Z,39.00
2018-07-30T18:38:01.768Z,38.80
2018-07-30T18:40:31.384Z,38.60
2018-07-30T18:43:00.592Z,38.30
2018-07-30T18:45:29.932Z,38.10
2018-07-30T18:47:59.637Z,37.90
2018-07-30T18:50:28.873Z,37.60
2018-07-30T18:52:58.231Z,37.50
2018-07-30T18:55:29.008Z,37.30
2018-07-30T18:57:58.435Z,37.10
2018-07-30T19:00:28.104Z,37.00
2018-07-30T19:02:58.014Z,36.90
2018-07-30T19:05:27.752Z,36.70
2018-07-30T19:07:57.040Z,36.60
2018-07-30T19:10:26.377Z,36.50
2018-07-30T19:12:55.825Z,36.40
2018-07-30T19:15:25.411Z,36.20
2018-07-30T19:17:54.748Z,35.90
2018-07-30T19:20:23.953Z,35.80
2018-07-30T19:22:53.421Z,35.60
2018-07-30T19:25:23.108Z,35.50
2018-07-30T19:27:52.608Z,35.30
2018-07-30T19:30:21.835Z,35.20
2018-07-30T19:32:51.040Z,35.10
2018-07-30T19:35:20.275Z,35.00
2018-07-30T19:37:49.457Z,34.90
2018-07-30T19:40:19.359Z,34.80
2018-07-30T19:42:48.569Z,34.70
2018-07-30T19:45:17.732Z,34.60
2018-07-30T19:47:47.044Z,34.60
2018-07-30T19:50:16.268Z,34.40
2018-07-30T19:52:46.532Z,34.30
2018-07-30T19:55:15.874Z,34.20
2018-07-30T19:57:45.331Z,34.20
2018-07-30T20:00:14.828Z,34.10
2018-07-30T20:02:44.125Z,34.10
2018-07-30T20:05:13.316Z,33.90
2018-07-30T20:07:42.504Z,33.80
2018-07-30T20:10:11.911Z,33.70
2018-07-30T20:12:41.124Z,33.60
2018-07-30T20:15:10.724Z,33.50
2018-07-30T20:17:40.180Z,33.50
2018-07-30T20:20:14.404Z,33.40
2018-07-30T20:22:44.059Z,33.30
2018-07-30T20:25:14.221Z,33.20
2018-07-30T20:27:44.140Z,33.10
2018-07-30T20:30:13.416Z,32.90
2018-07-30T20:32:42.602Z,32.80
2018-07-30T20:35:11.795Z,32.60
2018-07-30T20:37:41.184Z,32.50
2018-07-30T20:40:10.399Z,32.40
2018-07-30T20:42:39.619Z,32.40
2018-07-30T20:45:08.912Z,32.40
2018-07-30T20:47:38.584Z,32.30
2018-07-30T20:50:07.784Z,32.20
2018-07-30T20:52:38.013Z,32.10
2018-07-30T20:55:07.272Z,32.00
2018-07-30T20:57:36.516Z,32.00
2018-07-30T21:00:06.884Z,31.90
2018-07-30T21:02:36.808Z,31.80
2018-07-30T21:05:06.108Z,31.80
2018-07-30T21:07:35.446Z,31.80
2018-07-30T21:10:04.708Z,31.70
2018-07-30T21:12:33.921Z,31.60
2018-07-30T21:15:04.148Z,31.60
2018-07-30T21:17:33.367Z,31.50
2018-07-30T21:20:02.596Z,31.40
2018-07-30T21:22:31.884Z,31.20
2018-07-30T21:25:01.090Z,31.10
2018-07-30T21:27:30.291Z,31.00
2018-07-30T21:29:59.504Z,31.00
2018-07-30T21:32:28.713Z,30.90
2018-07-30T21:34:57.956Z,30.80
2018-07-30T21:37:27.544Z,30.80
2018-07-30T21:39:56.781Z,30.70
2018-07-30T21:42:26.232Z,30.70
2018-07-30T21:44:55.458Z,30.60
2018-07-30T21:47:24.882Z,30.50
2018-07-30T21:49:54.009Z,30.50
2018-07-30T21:52:23.212Z,30.40
2018-07-30T21:54:52.515Z,30.40
2018-07-30T21:57:21.708Z,30.30
2018-07-30T21:59:51.248Z,30.20
2018-07-30T22:02:20.671Z,30.30
2018-07-30T22:04:50.572Z,30.40
2018-07-30T22:07:19.801Z,30.40
2018-07-30T22:09:49.016Z,30.20
2018-07-30T22:12:18.197Z,29.90
2018-07-30T22:14:47.468Z,29.80
2018-07-30T22:17:16.650Z,29.60
2018-07-30T22:19:45.847Z,29.50
2018-07-30T22:22:15.567Z,29.60
2018-07-30T22:24:44.747Z,29.50
2018-07-30T22:27:13.944Z,29.40
2018-07-30T22:29:43.198Z,29.30
2018-07-30T22:32:12.529Z,29.30
2018-07-30T22:34:41.723Z,29.20
2018-07-30T22:39:39.679Z,29.10
2018-07-30T22:42:08.872Z,29.00
2018-07-30T22:44:38.352Z,28.90
2018-07-30T22:47:07.565Z,28.80
2018-07-30T22:49:36.748Z,28.80
2018-07-30T22:52:06.335Z,28.80
2018-07-30T22:54:35.792Z,28.70
2018-07-30T22:57:05.081Z,28.70
2018-07-30T22:59:34.292Z,28.60
2018-07-30T23:02:03.574Z,28.50
2018-07-30T23:04:32.803Z,28.40
2018-07-30T23:07:03.594Z,28.20
2018-07-30T23:09:32.944Z,28.10
2018-07-30T23:12:02.264Z,28.10
2018-07-30T23:14:31.464Z,28.10
2018-07-30T23:19:29.540Z,28.00
2018-07-30T23:21:58.788Z,27.90
2018-07-30T23:24:27.976Z,27.90
2018-07-30T23:26:57.156Z,27.90
2018-07-30T23:29:26.680Z,27.90
2018-07-30T23:31:55.864Z,27.90
2018-07-30T23:34:25.057Z,27.80
2018-07-30T23:36:54.338Z,27.70
2018-07-30T23:39:23.492Z,27.60
2018-07-30T23:41:52.702Z,27.40
2018-07-30T23:44:22.228Z,27.40
2018-07-30T23:46:51.428Z,27.40
2018-07-30T23:49:20.640Z,27.50
2018-07-30T23:51:50.388Z,27.50
2018-07-30T23:54:19.627Z,27.60
2018-07-30T23:56:48.849Z,27.60
2018-07-30T23:59:18.095Z,27.70
